sensor_id;sensor_type;location;lat;lon;timestamp;pressure;altitude;pressure_sealevel;temperature
13497;BMP180;6820;49.374;8.452;2022-07-05T00:00:13;100813.59;;;27.38
13497;BMP180;6820;49.374;8.452;2022-07-05T00:04:15;100820.50;;;27.34
13497;BMP180;6820;49.374;8.452;2022-07-05T00:08:16;100824.81;;;27.25
13497;BMP180;6820;49.374;8.452;2022-07-05T00:12:21;100819.63;;;27.31
13497;BMP180;6820;49.374;8.452;2022-07-05T00:16:23;100821.34;;;27.23
13497;BMP180;6820;49.374;8.452;2022-07-05T00:20:25;100811.78;;;27.15
13497;BMP180;6820;49.374;8.452;2022-07-05T00:24:27;100806.59;;;27.09
13497;BMP180;6820;49.374;8.452;2022-07-05T00:28:28;100819.59;;;27.13
13497;BMP180;6820;49.374;8.452;2022-07-05T00:32:30;100818.72;;;27.04
13497;BMP180;6820;49.374;8.452;2022-07-05T00:36:32;100819.56;;;27.01
13497;BMP180;6820;49.374;8.452;2022-07-05T00:40:36;100816.97;;;26.98
13497;BMP180;6820;49.374;8.452;2022-07-05T00:44:39;100818.69;;;26.85
13497;BMP180;6820;49.374;8.452;2022-07-05T00:48:43;100811.69;;;26.75
13497;BMP180;6820;49.374;8.452;2022-07-05T00:52:45;100819.47;;;26.69
13497;BMP180;6820;49.374;8.452;2022-07-05T00:56:47;100811.66;;;26.72
13497;BMP180;6820;49.374;8.452;2022-07-05T01:00:49;100823.78;;;26.70
13497;BMP180;6820;49.374;8.452;2022-07-05T01:04:51;100824.59;;;26.50
13497;BMP180;6820;49.374;8.452;2022-07-05T01:08:53;100830.66;;;26.53
13497;BMP180;6820;49.374;8.452;2022-07-05T01:12:54;100831.47;;;26.46
13497;BMP180;6820;49.374;8.452;2022-07-05T01:16:56;100834.94;;;26.41
13497;BMP180;6820;49.374;8.452;2022-07-05T01:20:59;100840.13;;;26.33
13497;BMP180;6820;49.374;8.452;2022-07-05T01:25:01;100827.13;;;26.41
13497;BMP180;6820;49.374;8.452;2022-07-05T01:29:02;100829.78;;;26.48
13497;BMP180;6820;49.374;8.452;2022-07-05T01:33:05;100833.28;;;26.56
13497;BMP180;6820;49.374;8.452;2022-07-05T01:37:08;100830.69;;;26.61
13497;BMP180;6820;49.374;8.452;2022-07-05T01:41:10;100829.84;;;26.63
13497;BMP180;6820;49.374;8.452;2022-07-05T01:45:12;100829.00;;;26.65
13497;BMP180;6820;49.374;8.452;2022-07-05T01:49:38;100835.84;;;26.52
13497;BMP180;6820;49.374;8.452;2022-07-05T01:53:41;100831.44;;;26.37
13497;BMP180;6820;49.374;8.452;2022-07-05T01:57:44;100827.97;;;26.31
13497;BMP180;6820;49.374;8.452;2022-07-05T02:01:46;100836.56;;;26.23
13497;BMP180;6820;49.374;8.452;2022-07-05T02:05:48;100839.16;;;26.20
13497;BMP180;6820;49.374;8.452;2022-07-05T02:09:53;100836.50;;;26.14
13497;BMP180;6820;49.374;8.452;2022-07-05T02:13:57;100839.13;;;26.12
13497;BMP180;6820;49.374;8.452;2022-07-05T02:18:03;100840.78;;;26.04
13497;BMP180;6820;49.374;8.452;2022-07-05T02:22:06;100833.75;;;25.92
13497;BMP180;6820;49.374;8.452;2022-07-05T02:26:08;100840.56;;;25.79
13497;BMP180;6820;49.374;8.452;2022-07-05T02:30:12;100838.81;;;25.72
13497;BMP180;6820;49.374;8.452;2022-07-05T02:34:14;100844.84;;;25.71
13497;BMP180;6820;49.374;8.452;2022-07-05T02:38:18;100839.66;;;25.74
13497;BMP180;6820;49.374;8.452;2022-07-05T02:42:20;100843.19;;;25.82
13497;BMP180;6820;49.374;8.452;2022-07-05T02:46:22;100851.94;;;25.92
13497;BMP180;6820;49.374;8.452;2022-07-05T02:50:26;100860.63;;;26.01
13497;BMP180;6820;49.374;8.452;2022-07-05T02:54:28;100858.06;;;26.00
13497;BMP180;6820;49.374;8.452;2022-07-05T02:58:31;100858.88;;;25.94
13497;BMP180;6820;49.374;8.452;2022-07-05T03:02:34;100856.97;;;25.72
13497;BMP180;6820;49.374;8.452;2022-07-05T03:06:37;100845.66;;;25.62
13497;BMP180;6820;49.374;8.452;2022-07-05T03:10:39;100851.66;;;25.58
13497;BMP180;6820;49.374;8.452;2022-07-05T03:14:42;100845.56;;;25.51
13497;BMP180;6820;49.374;8.452;2022-07-05T03:18:44;100854.97;;;25.48
13497;BMP180;6820;49.374;8.452;2022-07-05T03:22:46;100858.44;;;25.47
13497;BMP180;6820;49.374;8.452;2022-07-05T03:26:50;100859.28;;;25.43
13497;BMP180;6820;49.374;8.452;2022-07-05T03:30:52;100858.38;;;25.39
13497;BMP180;6820;49.374;8.452;2022-07-05T03:34:56;100854.84;;;25.35
13497;BMP180;6820;49.374;8.452;2022-07-05T03:38:57;100856.47;;;25.24
13497;BMP180;6820;49.374;8.452;2022-07-05T03:42:59;100864.25;;;25.24
13497;BMP180;6820;49.374;8.452;2022-07-05T03:47:07;100866.03;;;25.26
13497;BMP180;6820;49.374;8.452;2022-07-05T03:51:09;100866.88;;;25.22
13497;BMP180;6820;49.374;8.452;2022-07-05T03:55:12;100866.84;;;25.19
13497;BMP180;6820;49.374;8.452;2022-07-05T03:59:14;100874.50;;;25.10
13497;BMP180;6820;49.374;8.452;2022-07-05T04:03:17;100870.09;;;25.01
13497;BMP180;6820;49.374;8.452;2022-07-05T04:07:19;100878.75;;;25.01
13497;BMP180;6820;49.374;8.452;2022-07-05T04:11:21;100881.34;;;25.03
13497;BMP180;6820;49.374;8.452;2022-07-05T04:15:26;100878.75;;;25.04
13497;BMP180;6820;49.374;8.452;2022-07-05T04:19:31;100884.03;;;25.08
13497;BMP180;6820;49.374;8.452;2022-07-05T04:23:32;100875.44;;;25.15
13497;BMP180;6820;49.374;8.452;2022-07-05T04:27:35;100880.69;;;25.23
13497;BMP180;6820;49.374;8.452;2022-07-05T04:31:37;100884.19;;;25.25
13497;BMP180;6820;49.374;8.452;2022-07-05T04:35:40;100886.91;;;25.35
13497;BMP180;6820;49.374;8.452;2022-07-05T04:39:42;100897.34;;;25.45
13497;BMP180;6820;49.374;8.452;2022-07-05T04:43:45;100901.72;;;25.46
13497;BMP180;6820;49.374;8.452;2022-07-05T04:47:48;100897.41;;;25.48
13497;BMP180;6820;49.374;8.452;2022-07-05T04:51:50;100906.97;;;25.49
13497;BMP180;6820;49.374;8.452;2022-07-05T04:55:52;100912.22;;;25.57
13497;BMP180;6820;49.374;8.452;2022-07-05T04:59:54;100903.53;;;25.52
13497;BMP180;6820;49.374;8.452;2022-07-05T05:03:55;100907.88;;;25.54
13497;BMP180;6820;49.374;8.452;2022-07-05T05:07:57;100917.47;;;25.63
13497;BMP180;6820;49.374;8.452;2022-07-05T05:11:59;100914.09;;;25.70
13497;BMP180;6820;49.374;8.452;2022-07-05T05:16:01;100918.41;;;25.72
13497;BMP180;6820;49.374;8.452;2022-07-05T05:20:10;100906.31;;;25.74
13497;BMP180;6820;49.374;8.452;2022-07-05T05:24:12;100911.53;;;25.77
13497;BMP180;6820;49.374;8.452;2022-07-05T05:28:14;100914.22;;;25.87
13497;BMP180;6820;49.374;8.452;2022-07-05T05:32:15;100913.44;;;25.97
13497;BMP180;6820;49.374;8.452;2022-07-05T05:36:17;100918.66;;;25.97
13497;BMP180;6820;49.374;8.452;2022-07-05T05:40:22;100923.91;;;26.04
13497;BMP180;6820;49.374;8.452;2022-07-05T05:44:24;100943.84;;;26.07
13497;BMP180;6820;49.374;8.452;2022-07-05T05:48:26;100928.22;;;26.04
13497;BMP180;6820;49.374;8.452;2022-07-05T05:52:27;100938.66;;;26.10
13497;BMP180;6820;49.374;8.452;2022-07-05T05:56:29;100929.97;;;26.09
13497;BMP180;6820;49.374;8.452;2022-07-05T06:00:30;100937.06;;;26.21
13497;BMP180;6820;49.374;8.452;2022-07-05T06:04:32;100940.56;;;26.29
13497;BMP180;6820;49.374;8.452;2022-07-05T06:08:34;100951.06;;;26.43
13497;BMP180;6820;49.374;8.452;2022-07-05T06:12:35;100945.94;;;26.55
13497;BMP180;6820;49.374;8.452;2022-07-05T06:16:37;100948.59;;;26.67
13497;BMP180;6820;49.374;8.452;2022-07-05T06:20:39;100947.75;;;26.72
13497;BMP180;6820;49.374;8.452;2022-07-05T06:24:41;100960.88;;;26.83
13497;BMP180;6820;49.374;8.452;2022-07-05T06:28:42;100953.09;;;26.90
13497;BMP180;6820;49.374;8.452;2022-07-05T06:32:45;100958.31;;;26.93
13497;BMP180;6820;49.374;8.452;2022-07-05T06:36:48;100952.31;;;27.06
13497;BMP180;6820;49.374;8.452;2022-07-05T06:40:49;100963.63;;;27.20
13497;BMP180;6820;49.374;8.452;2022-07-05T06:44:51;100956.72;;;27.30
13497;BMP180;6820;49.374;8.452;2022-07-05T06:48:53;100965.44;;;27.37
13497;BMP180;6820;49.374;8.452;2022-07-05T06:52:55;100963.72;;;27.39
13497;BMP180;6820;49.374;8.452;2022-07-05T06:56:56;100968.94;;;27.48
13497;BMP180;6820;49.374;8.452;2022-07-05T07:01:18;100961.19;;;27.56
13497;BMP180;6820;49.374;8.452;2022-07-05T07:05:22;100967.25;;;27.66
13497;BMP180;6820;49.374;8.452;2022-07-05T07:09:30;100975.94;;;27.83
13497;BMP180;6820;49.374;8.452;2022-07-05T07:13:31;100982.06;;;27.89
13497;BMP180;6820;49.374;8.452;2022-07-05T07:17:33;100971.66;;;27.98
13497;BMP180;6820;49.374;8.452;2022-07-05T07:21:35;100978.63;;;28.08
13497;BMP180;6820;49.374;8.452;2022-07-05T07:25:37;100978.63;;;28.11
13497;BMP180;6820;49.374;8.452;2022-07-05T07:29:39;100979.47;;;28.20
13497;BMP180;6820;49.374;8.452;2022-07-05T07:33:41;100976.00;;;28.34
13497;BMP180;6820;49.374;8.452;2022-07-05T07:37:45;100980.31;;;28.48
13497;BMP180;6820;49.374;8.452;2022-07-05T07:41:47;100978.63;;;28.58
13497;BMP180;6820;49.374;8.452;2022-07-05T07:45:49;100975.97;;;28.71
13497;BMP180;6820;49.374;8.452;2022-07-05T07:49:51;100976.81;;;28.73
13497;BMP180;6820;49.374;8.452;2022-07-05T07:53:53;100979.44;;;28.82
13497;BMP180;6820;49.374;8.452;2022-07-05T07:58:08;100982.00;;;28.92
13497;BMP180;6820;49.374;8.452;2022-07-05T08:02:10;100986.31;;;29.10
13497;BMP180;6820;49.374;8.452;2022-07-05T08:06:12;100982.81;;;29.19
13497;BMP180;6820;49.374;8.452;2022-07-05T08:10:15;100982.75;;;29.24
13497;BMP180;6820;49.374;8.452;2022-07-05T08:14:17;100976.63;;;29.35
13497;BMP180;6820;49.374;8.452;2022-07-05T08:18:19;100979.16;;;29.50
13497;BMP180;6820;49.374;8.452;2022-07-05T08:22:40;100978.22;;;29.67
13497;BMP180;6820;49.374;8.452;2022-07-05T08:26:42;100979.00;;;29.81
13497;BMP180;6820;49.374;8.452;2022-07-05T08:30:43;100978.88;;;29.96
13497;BMP180;6820;49.374;8.452;2022-07-05T08:34:45;100977.13;;;29.98
13497;BMP180;6820;49.374;8.452;2022-07-05T08:38:47;100973.63;;;30.00
13497;BMP180;6820;49.374;8.452;2022-07-05T08:42:49;100973.53;;;30.10
13497;BMP180;6820;49.374;8.452;2022-07-05T08:46:51;100966.50;;;30.20
13497;BMP180;6820;49.374;8.452;2022-07-05T08:50:56;100970.69;;;30.38
13497;BMP180;6820;49.374;8.452;2022-07-05T08:54:59;100969.69;;;30.51
13497;BMP180;6820;49.374;8.452;2022-07-05T08:59:01;100964.31;;;30.64
13497;BMP180;6820;49.374;8.452;2022-07-05T09:03:02;100959.94;;;30.71
13497;BMP180;6820;49.374;8.452;2022-07-05T09:07:05;100959.81;;;30.78
13497;BMP180;6820;49.374;8.452;2022-07-05T09:11:12;100960.69;;;30.80
13497;BMP180;6820;49.374;8.452;2022-07-05T09:15:13;100962.41;;;30.84
13497;BMP180;6820;49.374;8.452;2022-07-05T09:19:15;100956.09;;;30.97
13497;BMP180;6820;49.374;8.452;2022-07-05T09:23:21;100955.06;;;31.10
13497;BMP180;6820;49.374;8.452;2022-07-05T09:27:29;100952.28;;;31.26
13497;BMP180;6820;49.374;8.452;2022-07-05T09:31:38;100955.75;;;31.27
13497;BMP180;6820;49.374;8.452;2022-07-05T09:35:51;100950.47;;;31.31
13497;BMP180;6820;49.374;8.452;2022-07-05T09:40:00;100949.41;;;31.42
13497;BMP180;6820;49.374;8.452;2022-07-05T09:44:02;100947.50;;;31.56
13497;BMP180;6820;49.374;8.452;2022-07-05T09:48:06;100950.72;;;31.73
13497;BMP180;6820;49.374;8.452;2022-07-05T09:52:30;100946.97;;;31.91
13497;BMP180;6820;49.374;8.452;2022-07-05T09:56:48;100943.75;;;32.24
13497;BMP180;6820;49.374;8.452;2022-07-05T10:00:50;100961.47;;;32.12
13497;BMP180;6820;49.374;8.452;2022-07-05T10:05:16;100957.44;;;31.90
13497;BMP180;6820;49.374;8.452;2022-07-05T10:09:18;100953.22;;;31.82
13497;BMP180;6820;49.374;8.452;2022-07-05T10:13:21;100941.38;;;32.09
13497;BMP180;6820;49.374;8.452;2022-07-05T10:17:22;100933.28;;;32.22
13497;BMP180;6820;49.374;8.452;2022-07-05T10:21:24;100926.56;;;32.56
13497;BMP180;6820;49.374;8.452;2022-07-05T10:25:28;100938.78;;;33.03
13497;BMP180;6820;49.374;8.452;2022-07-05T10:29:30;100944.34;;;33.30
13497;BMP180;6820;49.374;8.452;2022-07-05T10:33:33;100939.66;;;33.43
13497;BMP180;6820;49.374;8.452;2022-07-05T10:37:35;100934.13;;;33.54
13497;BMP180;6820;49.374;8.452;2022-07-05T10:41:37;100934.19;;;33.51
13497;BMP180;6820;49.374;8.452;2022-07-05T10:45:49;100930.81;;;33.46
13497;BMP180;6820;49.374;8.452;2022-07-05T10:50:00;100934.91;;;33.59
13497;BMP180;6820;49.374;8.452;2022-07-05T10:54:02;100928.09;;;33.88
13497;BMP180;6820;49.374;8.452;2022-07-05T11:02:19;100922.97;;;34.15
13497;BMP180;6820;49.374;8.452;2022-07-05T11:11:13;100914.03;;;33.52
13497;BMP180;6820;49.374;8.452;2022-07-05T11:15:15;100913.72;;;33.64
13497;BMP180;6820;49.374;8.452;2022-07-05T11:19:17;100914.94;;;33.88
13497;BMP180;6820;49.374;8.452;2022-07-05T11:23:26;100906.16;;;34.22
13497;BMP180;6820;49.374;8.452;2022-07-05T11:27:29;100901.31;;;34.70
13497;BMP180;6820;49.374;8.452;2022-07-05T11:31:41;100899.16;;;35.13
13497;BMP180;6820;49.374;8.452;2022-07-05T11:35:43;100887.28;;;35.29
13497;BMP180;6820;49.374;8.452;2022-07-05T11:39:45;100835.78;;;35.17
13497;BMP180;6820;49.374;8.452;2022-07-05T11:43:55;100886.03;;;35.11
13497;BMP180;6820;49.374;8.452;2022-07-05T11:47:59;100881.56;;;35.15
13497;BMP180;6820;49.374;8.452;2022-07-05T11:52:02;100874.25;;;35.24
13497;BMP180;6820;49.374;8.452;2022-07-05T11:56:04;100881.47;;;35.45
13497;BMP180;6820;49.374;8.452;2022-07-05T12:00:06;100878.72;;;35.48
13497;BMP180;6820;49.374;8.452;2022-07-05T12:04:40;100869.03;;;35.21
13497;BMP180;6820;49.374;8.452;2022-07-05T12:08:47;100870.88;;;35.19
13497;BMP180;6820;49.374;8.452;2022-07-05T12:13:08;100862.34;;;35.10
13497;BMP180;6820;49.374;8.452;2022-07-05T12:17:12;100862.25;;;35.14
13497;BMP180;6820;49.374;8.452;2022-07-05T12:21:20;100855.91;;;35.47
13497;BMP180;6820;49.374;8.452;2022-07-05T12:25:23;100838.41;;;35.97
13497;BMP180;6820;49.374;8.452;2022-07-05T12:29:25;100841.19;;;36.41
13497;BMP180;6820;49.374;8.452;2022-07-05T12:33:27;100833.47;;;36.36
13497;BMP180;6820;49.374;8.452;2022-07-05T12:37:29;100840.59;;;36.10
13497;BMP180;6820;49.374;8.452;2022-07-05T12:41:32;100848.09;;;35.71
13497;BMP180;6820;49.374;8.452;2022-07-05T12:45:35;100847.44;;;35.64
13497;BMP180;6820;49.374;8.452;2022-07-05T12:50:04;100848.41;;;35.06
13497;BMP180;6820;49.374;8.452;2022-07-05T12:54:22;100839.44;;;35.12
13497;BMP180;6820;49.374;8.452;2022-07-05T12:58:53;100831.94;;;35.54
13497;BMP180;6820;49.374;8.452;2022-07-05T13:02:55;100823.88;;;36.10
13497;BMP180;6820;49.374;8.452;2022-07-05T13:07:01;100818.34;;;36.64
13497;BMP180;6820;49.374;8.452;2022-07-05T13:11:30;100816.50;;;36.88
13497;BMP180;6820;49.374;8.452;2022-07-05T13:15:32;100820.22;;;36.83
13497;BMP180;6820;49.374;8.452;2022-07-05T13:19:34;100818.75;;;36.54
13497;BMP180;6820;49.374;8.452;2022-07-05T13:23:36;100825.56;;;36.12
13497;BMP180;6820;49.374;8.452;2022-07-05T13:27:39;100821.50;;;35.77
13497;BMP180;6820;49.374;8.452;2022-07-05T13:31:40;100821.16;;;35.34
13497;BMP180;6820;49.374;8.452;2022-07-05T13:35:43;100819.84;;;35.22
13497;BMP180;6820;49.374;8.452;2022-07-05T13:39:44;100821.28;;;35.57
13497;BMP180;6820;49.374;8.452;2022-07-05T13:43:46;100813.09;;;36.16
13497;BMP180;6820;49.374;8.452;2022-07-05T13:47:48;100816.00;;;36.79
13497;BMP180;6820;49.374;8.452;2022-07-05T13:51:49;100811.00;;;37.37
13497;BMP180;6820;49.374;8.452;2022-07-05T13:55:51;100794.16;;;37.81
13497;BMP180;6820;49.374;8.452;2022-07-05T13:59:52;100797.75;;;37.79
13497;BMP180;6820;49.374;8.452;2022-07-05T14:03:59;100807.78;;;37.51
13497;BMP180;6820;49.374;8.452;2022-07-05T14:08:02;100813.16;;;37.06
13497;BMP180;6820;49.374;8.452;2022-07-05T14:12:04;100805.03;;;36.67
13497;BMP180;6820;49.374;8.452;2022-07-05T14:16:06;100799.53;;;36.94
13497;BMP180;6820;49.374;8.452;2022-07-05T14:20:09;100810.09;;;36.95
13497;BMP180;6820;49.374;8.452;2022-07-05T14:24:11;100801.44;;;36.90
13497;BMP180;6820;49.374;8.452;2022-07-05T14:28:12;100792.78;;;36.64
13497;BMP180;6820;49.374;8.452;2022-07-05T14:32:14;100795.13;;;36.25
13497;BMP180;6820;49.374;8.452;2022-07-05T14:36:16;100784.88;;;36.18
13497;BMP180;6820;49.374;8.452;2022-07-05T14:40:20;100775.66;;;36.74
13497;BMP180;6820;49.374;8.452;2022-07-05T14:44:25;100777.53;;;37.16
13497;BMP180;6820;49.374;8.452;2022-07-05T14:48:27;100771.38;;;37.97
13497;BMP180;6820;49.374;8.452;2022-07-05T14:52:28;100766.22;;;38.52
13497;BMP180;6820;49.374;8.452;2022-07-05T14:56:32;100759.34;;;38.48
13497;BMP180;6820;49.374;8.452;2022-07-05T15:00:33;100755.63;;;38.34
13497;BMP180;6820;49.374;8.452;2022-07-05T15:04:35;100746.38;;;37.84
13497;BMP180;6820;49.374;8.452;2022-07-05T15:08:37;100755.53;;;37.35
13497;BMP180;6820;49.374;8.452;2022-07-05T15:12:39;100751.13;;;37.15
13497;BMP180;6820;49.374;8.452;2022-07-05T15:16:40;100753.16;;;37.70
13497;BMP180;6820;49.374;8.452;2022-07-05T15:20:42;100744.03;;;37.57
13497;BMP180;6820;49.374;8.452;2022-07-05T15:24:44;100739.59;;;37.38
13497;BMP180;6820;49.374;8.452;2022-07-05T15:28:45;100729.53;;;37.66
13497;BMP180;6820;49.374;8.452;2022-07-05T15:32:47;100733.84;;;37.68
13497;BMP180;6820;49.374;8.452;2022-07-05T15:36:49;100732.56;;;38.16
13497;BMP180;6820;49.374;8.452;2022-07-05T15:40:50;100724.47;;;38.19
13497;BMP180;6820;49.374;8.452;2022-07-05T15:44:52;100730.19;;;37.71
13497;BMP180;6820;49.374;8.452;2022-07-05T15:49:03;100734.56;;;37.31
13497;BMP180;6820;49.374;8.452;2022-07-05T15:53:04;100734.94;;;36.80
13497;BMP180;6820;49.374;8.452;2022-07-05T15:57:06;100730.25;;;36.86
13497;BMP180;6820;49.374;8.452;2022-07-05T16:01:08;100714.59;;;37.65
13497;BMP180;6820;49.374;8.452;2022-07-05T16:05:10;100722.53;;;38.42
13497;BMP180;6820;49.374;8.452;2022-07-05T16:09:11;100720.38;;;38.86
13497;BMP180;6820;49.374;8.452;2022-07-05T16:13:13;100717.59;;;38.89
13497;BMP180;6820;49.374;8.452;2022-07-05T16:17:17;100715.53;;;38.77
13497;BMP180;6820;49.374;8.452;2022-07-05T16:21:19;100706.50;;;38.81
13497;BMP180;6820;49.374;8.452;2022-07-05T16:25:20;100711.47;;;39.05
13497;BMP180;6820;49.374;8.452;2022-07-05T16:29:22;100705.34;;;39.22
13497;BMP180;6820;49.374;8.452;2022-07-05T16:33:24;100713.53;;;38.99
13497;BMP180;6820;49.374;8.452;2022-07-05T16:37:26;100713.50;;;38.08
13497;BMP180;6820;49.374;8.452;2022-07-05T16:41:28;100715.38;;;37.26
13497;BMP180;6820;49.374;8.452;2022-07-05T16:45:30;100731.16;;;36.64
13497;BMP180;6820;49.374;8.452;2022-07-05T16:49:31;100735.34;;;36.69
13497;BMP180;6820;49.374;8.452;2022-07-05T16:53:33;100722.00;;;36.72
13497;BMP180;6820;49.374;8.452;2022-07-05T16:57:38;100720.13;;;36.08
13497;BMP180;6820;49.374;8.452;2022-07-05T17:01:39;100720.09;;;35.60
13497;BMP180;6820;49.374;8.452;2022-07-05T17:05:41;100720.47;;;35.24
13497;BMP180;6820;49.374;8.452;2022-07-05T17:09:43;100721.63;;;35.15
13497;BMP180;6820;49.374;8.452;2022-07-05T17:13:49;100720.88;;;35.87
13497;BMP180;6820;49.374;8.452;2022-07-05T17:17:55;100721.16;;;36.26
13497;BMP180;6820;49.374;8.452;2022-07-05T17:21:56;100728.28;;;36.00
13497;BMP180;6820;49.374;8.452;2022-07-05T17:25:58;100729.44;;;35.69
13497;BMP180;6820;49.374;8.452;2022-07-05T17:30:00;100728.53;;;35.70
13497;BMP180;6820;49.374;8.452;2022-07-05T17:34:01;100725.56;;;35.79
13497;BMP180;6820;49.374;8.452;2022-07-05T17:38:03;100735.47;;;35.73
13497;BMP180;6820;49.374;8.452;2022-07-05T17:42:05;100733.22;;;35.63
13497;BMP180;6820;49.374;8.452;2022-07-05T17:46:07;100734.81;;;35.66
13497;BMP180;6820;49.374;8.452;2022-07-05T17:50:08;100745.44;;;35.65
13497;BMP180;6820;49.374;8.452;2022-07-05T17:54:30;100744.91;;;35.54
13497;BMP180;6820;49.374;8.452;2022-07-05T17:58:32;100750.75;;;35.38
13497;BMP180;6820;49.374;8.452;2022-07-05T18:02:34;100751.25;;;35.23
13497;BMP180;6820;49.374;8.452;2022-07-05T18:06:38;100752.72;;;35.04
13497;BMP180;6820;49.374;8.452;2022-07-05T18:10:41;100751.44;;;34.90
13497;BMP180;6820;49.374;8.452;2022-07-05T18:14:43;100755.34;;;34.77
13497;BMP180;6820;49.374;8.452;2022-07-05T18:18:44;100762.88;;;34.61
13497;BMP180;6820;49.374;8.452;2022-07-05T18:22:51;100754.94;;;34.34
13497;BMP180;6820;49.374;8.452;2022-07-05T18:26:53;100758.16;;;34.11
13497;BMP180;6820;49.374;8.452;2022-07-05T18:31:01;100763.00;;;33.96
13497;BMP180;6820;49.374;8.452;2022-07-05T18:35:02;100757.88;;;33.92
13497;BMP180;6820;49.374;8.452;2022-07-05T18:39:04;100763.59;;;33.74
13497;BMP180;6820;49.374;8.452;2022-07-05T18:43:07;100761.56;;;33.50
13497;BMP180;6820;49.374;8.452;2022-07-05T18:47:08;100772.22;;;33.46
13497;BMP180;6820;49.374;8.452;2022-07-05T18:51:10;100776.66;;;33.44
13497;BMP180;6820;49.374;8.452;2022-07-05T18:55:12;100780.97;;;33.46
13497;BMP180;6820;49.374;8.452;2022-07-05T18:59:14;100786.22;;;33.48
13497;BMP180;6820;49.374;8.452;2022-07-05T19:03:16;100793.34;;;33.43
13497;BMP180;6820;49.374;8.452;2022-07-05T19:07:17;100800.75;;;33.26
13497;BMP180;6820;49.374;8.452;2022-07-05T19:11:37;100806.03;;;33.23
13497;BMP180;6820;49.374;8.452;2022-07-05T19:15:58;100814.13;;;33.16
13497;BMP180;6820;49.374;8.452;2022-07-05T19:20:01;100806.25;;;33.14
13497;BMP180;6820;49.374;8.452;2022-07-05T19:24:03;100809.31;;;32.97
13497;BMP180;6820;49.374;8.452;2022-07-05T19:28:05;100811.69;;;32.68
13497;BMP180;6820;49.374;8.452;2022-07-05T19:32:16;100819.09;;;32.49
13497;BMP180;6820;49.374;8.452;2022-07-05T19:36:17;100824.72;;;32.31
13497;BMP180;6820;49.374;8.452;2022-07-05T19:40:19;100839.06;;;32.12
13497;BMP180;6820;49.374;8.452;2022-07-05T19:44:35;100848.16;;;31.92
13497;BMP180;6820;49.374;8.452;2022-07-05T19:48:37;100855.47;;;31.74
13497;BMP180;6820;49.374;8.452;2022-07-05T19:52:41;100868.88;;;31.56
13497;BMP180;6820;49.374;8.452;2022-07-05T19:56:42;100869.88;;;31.46
13497;BMP180;6820;49.374;8.452;2022-07-05T20:00:44;100884.13;;;31.29
13497;BMP180;6820;49.374;8.452;2022-07-05T20:04:46;100881.69;;;31.14
13497;BMP180;6820;49.374;8.452;2022-07-05T20:08:48;100892.25;;;31.07
13497;BMP180;6820;49.374;8.452;2022-07-05T20:12:49;100901.16;;;30.94
13497;BMP180;6820;49.374;8.452;2022-07-05T20:16:51;100911.69;;;30.91
13497;BMP180;6820;49.374;8.452;2022-07-05T20:20:53;100909.22;;;30.78
13497;BMP180;6820;49.374;8.452;2022-07-05T20:24:54;100932.00;;;30.70
13497;BMP180;6820;49.374;8.452;2022-07-05T20:28:56;100939.06;;;30.59
13497;BMP180;6820;49.374;8.452;2022-07-05T20:32:58;100934.84;;;30.48
13497;BMP180;6820;49.374;8.452;2022-07-05T20:37:06;100942.72;;;30.43
13497;BMP180;6820;49.374;8.452;2022-07-05T20:41:08;100942.88;;;30.32
13497;BMP180;6820;49.374;8.452;2022-07-05T20:45:09;100958.69;;;30.18
13497;BMP180;6820;49.374;8.452;2022-07-05T20:49:11;100953.44;;;30.17
13497;BMP180;6820;49.374;8.452;2022-07-05T20:53:13;100959.56;;;30.13
13497;BMP180;6820;49.374;8.452;2022-07-05T20:57:14;100968.31;;;30.09
13497;BMP180;6820;49.374;8.452;2022-07-05T21:01:16;100966.59;;;30.09
13497;BMP180;6820;49.374;8.452;2022-07-05T21:05:18;100988.38;;;30.07
13497;BMP180;6820;49.374;8.452;2022-07-05T21:09:20;100982.34;;;29.99
13497;BMP180;6820;49.374;8.452;2022-07-05T21:13:22;100987.59;;;29.95
13497;BMP180;6820;49.374;8.452;2022-07-05T21:17:24;100997.25;;;29.87
13497;BMP180;6820;49.374;8.452;2022-07-05T21:21:25;101000.78;;;29.81
13497;BMP180;6820;49.374;8.452;2022-07-05T21:25:27;101000.88;;;29.65
13497;BMP180;6820;49.374;8.452;2022-07-05T21:29:29;101011.31;;;29.58
13497;BMP180;6820;49.374;8.452;2022-07-05T21:33:31;101008.72;;;29.58
13497;BMP180;6820;49.374;8.452;2022-07-05T21:37:33;101014.88;;;29.49
13497;BMP180;6820;49.374;8.452;2022-07-05T21:41:35;101018.38;;;29.45
13497;BMP180;6820;49.374;8.452;2022-07-05T21:45:37;101026.19;;;29.42
13497;BMP180;6820;49.374;8.452;2022-07-05T21:49:39;101032.31;;;29.41
13497;BMP180;6820;49.374;8.452;2022-07-05T21:53:40;101033.22;;;29.32
13497;BMP180;6820;49.374;8.452;2022-07-05T21:57:42;101032.41;;;29.19
13497;BMP180;6820;49.374;8.452;2022-07-05T22:01:44;101027.22;;;29.12
13497;BMP180;6820;49.374;8.452;2022-07-05T22:06:04;101040.25;;;29.06
13497;BMP180;6820;49.374;8.452;2022-07-05T22:10:06;101033.34;;;28.93
13497;BMP180;6820;49.374;8.452;2022-07-05T22:14:09;101046.38;;;28.90
13497;BMP180;6820;49.374;8.452;2022-07-05T22:18:11;101049.88;;;28.88
13497;BMP180;6820;49.374;8.452;2022-07-05T22:22:13;101055.97;;;28.82
13497;BMP180;6820;49.374;8.452;2022-07-05T22:26:14;101059.44;;;28.78
13497;BMP180;6820;49.374;8.452;2022-07-05T22:30:16;101069.03;;;28.72
13497;BMP180;6820;49.374;8.452;2022-07-05T22:34:18;101067.28;;;28.62
13497;BMP180;6820;49.374;8.452;2022-07-05T22:38:19;101080.34;;;28.52
13497;BMP180;6820;49.374;8.452;2022-07-05T22:42:21;101080.31;;;28.34
13497;BMP180;6820;49.374;8.452;2022-07-05T22:46:23;101087.25;;;28.17
13497;BMP180;6820;49.374;8.452;2022-07-05T22:50:25;101084.63;;;28.00
13497;BMP180;6820;49.374;8.452;2022-07-05T22:54:26;101092.34;;;27.84
13497;BMP180;6820;49.374;8.452;2022-07-05T22:58:28;101095.75;;;27.69
13497;BMP180;6820;49.374;8.452;2022-07-05T23:02:30;101111.31;;;27.49
13497;BMP180;6820;49.374;8.452;2022-07-05T23:06:32;101105.09;;;27.29
13497;BMP180;6820;49.374;8.452;2022-07-05T23:10:33;101112.00;;;27.21
13497;BMP180;6820;49.374;8.452;2022-07-05T23:14:35;101121.47;;;27.06
13497;BMP180;6820;49.374;8.452;2022-07-05T23:18:37;101121.38;;;26.95
13497;BMP180;6820;49.374;8.452;2022-07-05T23:22:38;101127.38;;;26.86
13497;BMP180;6820;49.374;8.452;2022-07-05T23:26:40;101129.09;;;26.84
13497;BMP180;6820;49.374;8.452;2022-07-05T23:30:42;101125.63;;;26.82